sensor_id;sensor_type;location;lat;lon;timestamp;temperature;humidity
4293;DHT22;2160;51.172;6.808;2023-11-18T05:02:17;8.60;99.90
4293;DHT22;2160;51.172;6.808;2023-11-18T05:04:44;8.60;99.90
4293;DHT22;2160;51.172;6.808;2023-11-18T05:07:11;8.70;99.90
4293;DHT22;2160;51.172;6.808;2023-11-18T05:09:38;8.50;99.90
4293;DHT22;2160;51.172;6.808;2023-11-18T05:12:06;8.40;99.90
4293;DHT22;2160;51.172;6.808;2023-11-18T05:14:33;8.50;99.90
4293;DHT22;2160;51.172;6.808;2023-11-18T05:17:01;8.80;99.90
4293;DHT22;2160;51.172;6.808;2023-11-18T05:19:31;8.60;99.90
4293;DHT22;2160;51.172;6.808;2023-11-18T05:21:58;8.60;99.90
4293;DHT22;2160;51.172;6.808;2023-11-18T05:24:25;8.60;99.90
4293;DHT22;2160;51.172;6.808;2023-11-18T05:26:53;8.50;99.90
4293;DHT22;2160;51.172;6.808;2023-11-18T05:29:20;8.60;99.90
4293;DHT22;2160;51.172;6.808;2023-11-18T05:31:47;8.60;99.90
4293;DHT22;2160;51.172;6.808;2023-11-18T05:34:14;8.70;99.90
4293;DHT22;2160;51.172;6.808;2023-11-18T05:36:43;8.70;99.90
4293;DHT22;2160;51.172;6.808;2023-11-18T05:39:09;8.60;99.90
4293;DHT22;2160;51.172;6.808;2023-11-18T05:41:37;8.80;99.90
4293;DHT22;2160;51.172;6.808;2023-11-18T05:44:06;8.80;99.90
4293;DHT22;2160;51.172;6.808;2023-11-18T05:46:34;8.90;99.90
4293;DHT22;2160;51.172;6.808;2023-11-18T05:49:03;8.70;99.90
4293;DHT22;2160;51.172;6.808;2023-11-18T05:51:33;8.80;99.90
4293;DHT22;2160;51.172;6.808;2023-11-18T05:54:02;8.90;99.90
4293;DHT22;2160;51.172;6.808;2023-11-18T05:56:29;8.80;99.90
4293;DHT22;2160;51.172;6.808;2023-11-18T05:58:56;8.80;99.90
4293;DHT22;2160;51.172;6.808;2023-11-18T06:01:24;8.80;99.90
4293;DHT22;2160;51.172;6.808;2023-11-18T06:03:53;8.90;99.90
4293;DHT22;2160;51.172;6.808;2023-11-18T06:06:20;9.00;99.90
4293;DHT22;2160;51.172;6.808;2023-11-18T06:08:47;9.00;99.90
4293;DHT22;2160;51.172;6.808;2023-11-18T06:11:16;9.00;99.90
4293;DHT22;2160;51.172;6.808;2023-11-18T06:13:46;9.10;99.90
4293;DHT22;2160;51.172;6.808;2023-11-18T06:16:14;9.10;99.90
4293;DHT22;2160;51.172;6.808;2023-11-18T06:18:42;9.10;99.90
4293;DHT22;2160;51.172;6.808;2023-11-18T06:21:14;9.10;99.90
4293;DHT22;2160;51.172;6.808;2023-11-18T06:23:41;9.10;99.90
4293;DHT22;2160;51.172;6.808;2023-11-18T06:26:08;9.10;99.90
4293;DHT22;2160;51.172;6.808;2023-11-18T06:28:38;9.10;99.90
4293;DHT22;2160;51.172;6.808;2023-11-18T06:31:06;9.10;99.90
4293;DHT22;2160;51.172;6.808;2023-11-18T06:33:38;9.00;99.90
4293;DHT22;2160;51.172;6.808;2023-11-18T06:36:08;9.10;99.90
4293;DHT22;2160;51.172;6.808;2023-11-18T06:38:37;9.20;99.90
4293;DHT22;2160;51.172;6.808;2023-11-18T06:41:04;9.10;99.90
4293;DHT22;2160;51.172;6.808;2023-11-18T06:43:35;9.20;99.90
4293;DHT22;2160;51.172;6.808;2023-11-18T06:46:18;9.20;99.90
4293;DHT22;2160;51.172;6.808;2023-11-18T06:48:48;9.30;99.90
4293;DHT22;2160;51.172;6.808;2023-11-18T06:51:15;9.20;99.90
4293;DHT22;2160;51.172;6.808;2023-11-18T06:53:42;9.20;99.90
4293;DHT22;2160;51.172;6.808;2023-11-18T06:56:10;9.20;99.90
4293;DHT22;2160;51.172;6.808;2023-11-18T06:58:38;9.20;99.90
4293;DHT22;2160;51.172;6.808;2023-11-18T07:01:05;9.20;99.90
4293;DHT22;2160;51.172;6.808;2023-11-18T07:03:33;9.30;99.90
4293;DHT22;2160;51.172;6.808;2023-11-18T07:06:01;9.30;99.90
4293;DHT22;2160;51.172;6.808;2023-11-18T07:08:31;9.30;99.90
4293;DHT22;2160;51.172;6.808;2023-11-18T07:11:00;9.40;99.90
4293;DHT22;2160;51.172;6.808;2023-11-18T07:13:28;9.40;99.90
4293;DHT22;2160;51.172;6.808;2023-11-18T07:15:55;9.40;99.90
4293;DHT22;2160;51.172;6.808;2023-11-18T07:18:23;9.30;99.90
4293;DHT22;2160;51.172;6.808;2023-11-18T07:20:51;9.30;99.90
4293;DHT22;2160;51.172;6.808;2023-11-18T07:23:18;9.40;99.90
4293;DHT22;2160;51.172;6.808;2023-11-18T07:25:45;9.30;99.90
4293;DHT22;2160;51.172;6.808;2023-11-18T07:28:13;9.30;99.90
4293;DHT22;2160;51.172;6.808;2023-11-18T07:30:42;9.30;99.90
4293;DHT22;2160;51.172;6.808;2023-11-18T07:33:13;9.40;99.90
4293;DHT22;2160;51.172;6.808;2023-11-18T07:35:40;9.30;99.90
4293;DHT22;2160;51.172;6.808;2023-11-18T07:38:09;9.30;99.90
4293;DHT22;2160;51.172;6.808;2023-11-18T07:40:36;9.30;99.90
4293;DHT22;2160;51.172;6.808;2023-11-18T07:43:07;9.40;99.90
4293;DHT22;2160;51.172;6.808;2023-11-18T07:45:35;9.30;99.90
4293;DHT22;2160;51.172;6.808;2023-11-18T07:48:04;9.30;99.90
4293;DHT22;2160;51.172;6.808;2023-11-18T07:50:33;9.20;99.90
4293;DHT22;2160;51.172;6.808;2023-11-18T07:53:00;9.40;99.90
4293;DHT22;2160;51.172;6.808;2023-11-18T07:55:28;9.40;99.90
4293;DHT22;2160;51.172;6.808;2023-11-18T07:57:55;9.50;99.90
4293;DHT22;2160;51.172;6.808;2023-11-18T08:00:22;9.50;99.90
4293;DHT22;2160;51.172;6.808;2023-11-18T08:02:50;9.70;99.90
4293;DHT22;2160;51.172;6.808;2023-11-18T08:05:19;9.70;99.90
4293;DHT22;2160;51.172;6.808;2023-11-18T08:07:49;9.90;99.90
4293;DHT22;2160;51.172;6.808;2023-11-18T08:10:16;10.00;99.90
4293;DHT22;2160;51.172;6.808;2023-11-18T08:12:45;10.00;99.90
4293;DHT22;2160;51.172;6.808;2023-11-18T08:15:13;9.90;99.90
4293;DHT22;2160;51.172;6.808;2023-11-18T08:17:40;10.00;99.90
4293;DHT22;2160;51.172;6.808;2023-11-18T08:20:08;10.10;99.90
4293;DHT22;2160;51.172;6.808;2023-11-18T08:22:40;10.20;99.90
4293;DHT22;2160;51.172;6.808;2023-11-18T08:25:08;10.10;99.90
4293;DHT22;2160;51.172;6.808;2023-11-18T08:27:35;10.20;99.90
4293;DHT22;2160;51.172;6.808;2023-11-18T08:30:04;10.20;99.90
4293;DHT22;2160;51.172;6.808;2023-11-18T08:32:36;10.10;99.90
4293;DHT22;2160;51.172;6.808;2023-11-18T08:35:05;10.20;99.90
4293;DHT22;2160;51.172;6.808;2023-11-18T08:37:33;10.20;99.90
4293;DHT22;2160;51.172;6.808;2023-11-18T08:40:01;10.30;99.90
4293;DHT22;2160;51.172;6.808;2023-11-18T08:42:28;10.40;99.90
4293;DHT22;2160;51.172;6.808;2023-11-18T08:44:57;10.30;99.90
4293;DHT22;2160;51.172;6.808;2023-11-18T08:47:29;10.30;99.90
4293;DHT22;2160;51.172;6.808;2023-11-18T08:49:57;10.30;99.90
4293;DHT22;2160;51.172;6.808;2023-11-18T08:52:35;10.30;99.90
4293;DHT22;2160;51.172;6.808;2023-11-18T08:55:02;10.40;99.90
4293;DHT22;2160;51.172;6.808;2023-11-18T08:57:45;10.40;99.90
4293;DHT22;2160;51.172;6.808;2023-11-18T09:00:24;10.40;99.90
4293;DHT22;2160;51.172;6.808;2023-11-18T09:03:16;10.50;99.90
4293;DHT22;2160;51.172;6.808;2023-11-18T09:05:51;10.50;99.90
4293;DHT22;2160;51.172;6.808;2023-11-18T09:08:27;10.80;99.90
4293;DHT22;2160;51.172;6.808;2023-11-18T09:10:57;10.70;99.90
4293;DHT22;2160;51.172;6.808;2023-11-18T09:13:25;10.80;99.90
4293;DHT22;2160;51.172;6.808;2023-11-18T09:15:55;10.70;99.90
4293;DHT22;2160;51.172;6.808;2023-11-18T09:18:26;10.60;99.90
4293;DHT22;2160;51.172;6.808;2023-11-18T09:20:53;10.60;99.90
4293;DHT22;2160;51.172;6.808;2023-11-18T09:23:21;10.50;99.90
4293;DHT22;2160;51.172;6.808;2023-11-18T09:25:49;10.40;99.90
4293;DHT22;2160;51.172;6.808;2023-11-18T09:28:16;10.30;99.90
4293;DHT22;2160;51.172;6.808;2023-11-18T09:30:45;10.20;99.90
4293;DHT22;2160;51.172;6.808;2023-11-18T09:33:19;10.40;99.90
4293;DHT22;2160;51.172;6.808;2023-11-18T09:35:56;10.50;99.90
4293;DHT22;2160;51.172;6.808;2023-11-18T09:38:28;10.70;99.90
4293;DHT22;2160;51.172;6.808;2023-11-18T09:40:56;10.50;99.90
4293;DHT22;2160;51.172;6.808;2023-11-18T09:43:29;10.60;99.90
4293;DHT22;2160;51.172;6.808;2023-11-18T09:46:04;10.80;99.90
4293;DHT22;2160;51.172;6.808;2023-11-18T09:48:40;10.70;99.90
4293;DHT22;2160;51.172;6.808;2023-11-18T09:51:10;10.80;99.90
4293;DHT22;2160;51.172;6.808;2023-11-18T09:53:40;10.80;99.90
4293;DHT22;2160;51.172;6.808;2023-11-18T09:56:14;10.90;99.90
4293;DHT22;2160;51.172;6.808;2023-11-18T09:59:01;11.00;99.90
4293;DHT22;2160;51.172;6.808;2023-11-18T10:01:35;11.00;99.90
4293;DHT22;2160;51.172;6.808;2023-11-18T10:04:05;11.00;99.90
4293;DHT22;2160;51.172;6.808;2023-11-18T10:06:35;10.90;99.90
4293;DHT22;2160;51.172;6.808;2023-11-18T10:09:06;10.80;99.90
4293;DHT22;2160;51.172;6.808;2023-11-18T10:11:43;10.80;99.90
4293;DHT22;2160;51.172;6.808;2023-11-18T10:14:13;10.80;99.90
4293;DHT22;2160;51.172;6.808;2023-11-18T10:16:43;10.80;99.90
4293;DHT22;2160;51.172;6.808;2023-11-18T10:19:12;10.90;99.90
4293;DHT22;2160;51.172;6.808;2023-11-18T10:21:44;10.90;99.90
4293;DHT22;2160;51.172;6.808;2023-11-18T10:24:15;11.00;99.90
4293;DHT22;2160;51.172;6.808;2023-11-18T10:26:46;10.90;99.90
4293;DHT22;2160;51.172;6.808;2023-11-18T10:29:14;10.90;99.90
4293;DHT22;2160;51.172;6.808;2023-11-18T10:31:44;10.90;99.90
4293;DHT22;2160;51.172;6.808;2023-11-18T10:34:12;11.00;99.90
4293;DHT22;2160;51.172;6.808;2023-11-18T10:36:41;11.10;99.90
4293;DHT22;2160;51.172;6.808;2023-11-18T10:39:29;11.20;99.90
4293;DHT22;2160;51.172;6.808;2023-11-18T10:41:59;11.00;99.90
4293;DHT22;2160;51.172;6.808;2023-11-18T10:44:27;10.80;99.90
4293;DHT22;2160;51.172;6.808;2023-11-18T10:46:55;11.10;99.90
4293;DHT22;2160;51.172;6.808;2023-11-18T10:49:24;11.10;99.90
4293;DHT22;2160;51.172;6.808;2023-11-18T10:51:51;10.80;99.90
4293;DHT22;2160;51.172;6.808;2023-11-18T10:54:18;10.70;99.90
4293;DHT22;2160;51.172;6.808;2023-11-18T10:56:49;10.60;99.90
4293;DHT22;2160;51.172;6.808;2023-11-18T10:59:16;10.70;99.90
4293;DHT22;2160;51.172;6.808;2023-11-18T11:01:44;10.70;99.90
4293;DHT22;2160;51.172;6.808;2023-11-18T11:04:15;10.80;99.90
4293;DHT22;2160;51.172;6.808;2023-11-18T11:06:47;10.90;99.90
4293;DHT22;2160;51.172;6.808;2023-11-18T11:09:19;11.10;99.90
4293;DHT22;2160;51.172;6.808;2023-11-18T11:11:53;11.30;99.90
4293;DHT22;2160;51.172;6.808;2023-11-18T11:14:22;11.30;99.90
4293;DHT22;2160;51.172;6.808;2023-11-18T11:16:52;11.20;99.90
4293;DHT22;2160;51.172;6.808;2023-11-18T11:19:25;11.30;99.90
4293;DHT22;2160;51.172;6.808;2023-11-18T11:22:01;11.20;99.90
4293;DHT22;2160;51.172;6.808;2023-11-18T11:24:49;11.20;99.90
4293;DHT22;2160;51.172;6.808;2023-11-18T11:27:27;11.30;99.90
4293;DHT22;2160;51.172;6.808;2023-11-18T11:30:08;11.10;99.90
4293;DHT22;2160;51.172;6.808;2023-11-18T11:32:42;11.10;99.90
4293;DHT22;2160;51.172;6.808;2023-11-18T11:35:18;11.10;99.90
4293;DHT22;2160;51.172;6.808;2023-11-18T11:37:47;11.20;99.90
4293;DHT22;2160;51.172;6.808;2023-11-18T11:40:16;11.20;99.90
4293;DHT22;2160;51.172;6.808;2023-11-18T11:42:50;11.20;99.90
4293;DHT22;2160;51.172;6.808;2023-11-18T11:45:22;11.30;99.90
4293;DHT22;2160;51.172;6.808;2023-11-18T11:47:55;11.40;99.90
4293;DHT22;2160;51.172;6.808;2023-11-18T11:50:49;11.50;99.90
4293;DHT22;2160;51.172;6.808;2023-11-18T11:53:22;11.60;99.90
4293;DHT22;2160;51.172;6.808;2023-11-18T11:55:53;11.60;99.90
4293;DHT22;2160;51.172;6.808;2023-11-18T11:58:33;11.50;99.90
4293;DHT22;2160;51.172;6.808;2023-11-18T12:01:15;11.30;99.90
4293;DHT22;2160;51.172;6.808;2023-11-18T12:03:44;11.40;99.90
4293;DHT22;2160;51.172;6.808;2023-11-18T12:06:14;11.40;99.90
4293;DHT22;2160;51.172;6.808;2023-11-18T12:08:51;11.50;99.90
4293;DHT22;2160;51.172;6.808;2023-11-18T12:11:18;11.50;99.90
4293;DHT22;2160;51.172;6.808;2023-11-18T12:14:03;11.60;99.90
4293;DHT22;2160;51.172;6.808;2023-11-18T12:17:00;11.40;99.90
4293;DHT22;2160;51.172;6.808;2023-11-18T12:19:34;11.50;99.90
4293;DHT22;2160;51.172;6.808;2023-11-18T12:22:13;11.50;99.90
4293;DHT22;2160;51.172;6.808;2023-11-18T12:24:46;11.60;99.90
4293;DHT22;2160;51.172;6.808;2023-11-18T12:27:42;11.50;99.90
4293;DHT22;2160;51.172;6.808;2023-11-18T12:30:40;11.40;99.90
4293;DHT22;2160;51.172;6.808;2023-11-18T12:33:18;11.40;99.90
4293;DHT22;2160;51.172;6.808;2023-11-18T12:39:02;11.50;99.90
4293;DHT22;2160;51.172;6.808;2023-11-18T12:41:39;11.50;99.90
4293;DHT22;2160;51.172;6.808;2023-11-18T12:44:15;11.70;99.90
4293;DHT22;2160;51.172;6.808;2023-11-18T12:46:53;11.70;99.90
4293;DHT22;2160;51.172;6.808;2023-11-18T12:49:23;11.60;99.90
4293;DHT22;2160;51.172;6.808;2023-11-18T12:51:51;11.70;99.90
4293;DHT22;2160;51.172;6.808;2023-11-18T12:54:19;11.80;99.90
4293;DHT22;2160;51.172;6.808;2023-11-18T12:56:47;11.80;99.90
4293;DHT22;2160;51.172;6.808;2023-11-18T12:59:16;11.70;99.90
4293;DHT22;2160;51.172;6.808;2023-11-18T13:01:46;11.70;99.90
4293;DHT22;2160;51.172;6.808;2023-11-18T13:04:20;11.70;99.90
4293;DHT22;2160;51.172;6.808;2023-11-18T13:06:47;11.80;99.90
4293;DHT22;2160;51.172;6.808;2023-11-18T13:09:17;11.60;99.90
4293;DHT22;2160;51.172;6.808;2023-11-18T13:11:53;11.60;99.90
4293;DHT22;2160;51.172;6.808;2023-11-18T13:14:23;11.80;99.90
4293;DHT22;2160;51.172;6.808;2023-11-18T13:16:52;11.80;99.90
4293;DHT22;2160;51.172;6.808;2023-11-18T13:19:27;11.80;99.90
4293;DHT22;2160;51.172;6.808;2023-11-18T13:21:58;11.90;99.90
4293;DHT22;2160;51.172;6.808;2023-11-18T13:24:25;11.80;99.90
4293;DHT22;2160;51.172;6.808;2023-11-18T13:26:54;11.70;99.90
4293;DHT22;2160;51.172;6.808;2023-11-18T13:29:23;11.90;99.90
4293;DHT22;2160;51.172;6.808;2023-11-18T13:31:51;11.70;99.90
4293;DHT22;2160;51.172;6.808;2023-11-18T13:34:18;11.90;99.90
4293;DHT22;2160;51.172;6.808;2023-11-18T13:36:47;11.70;99.90
4293;DHT22;2160;51.172;6.808;2023-11-18T13:39:16;11.60;99.90
4293;DHT22;2160;51.172;6.808;2023-11-18T13:41:43;11.60;99.90
4293;DHT22;2160;51.172;6.808;2023-11-18T13:44:11;11.70;99.90
4293;DHT22;2160;51.172;6.808;2023-11-18T13:46:39;11.70;99.90
4293;DHT22;2160;51.172;6.808;2023-11-18T13:49:08;11.60;99.90
4293;DHT22;2160;51.172;6.808;2023-11-18T13:51:35;11.70;99.90
4293;DHT22;2160;51.172;6.808;2023-11-18T13:54:05;11.60;99.90
4293;DHT22;2160;51.172;6.808;2023-11-18T13:56:32;11.70;99.90
4293;DHT22;2160;51.172;6.808;2023-11-18T13:58:59;11.70;99.90
4293;DHT22;2160;51.172;6.808;2023-11-18T14:01:26;11.70;99.90
4293;DHT22;2160;51.172;6.808;2023-11-18T14:03:54;11.50;99.90
4293;DHT22;2160;51.172;6.808;2023-11-18T14:06:27;11.50;99.90
4293;DHT22;2160;51.172;6.808;2023-11-18T14:08:54;11.50;99.90
4293;DHT22;2160;51.172;6.808;2023-11-18T14:11:23;11.60;99.90
4293;DHT22;2160;51.172;6.808;2023-11-18T14:13:50;11.50;99.90
4293;DHT22;2160;51.172;6.808;2023-11-18T14:16:19;11.50;99.90
4293;DHT22;2160;51.172;6.808;2023-11-18T14:18:49;11.50;99.90
4293;DHT22;2160;51.172;6.808;2023-11-18T14:21:20;11.60;99.90
4293;DHT22;2160;51.172;6.808;2023-11-18T14:23:47;11.30;99.90
4293;DHT22;2160;51.172;6.808;2023-11-18T14:26:18;11.30;99.90
4293;DHT22;2160;51.172;6.808;2023-11-18T14:28:48;11.20;99.90
4293;DHT22;2160;51.172;6.808;2023-11-18T14:31:15;11.20;99.90
4293;DHT22;2160;51.172;6.808;2023-11-18T14:33:42;11.20;99.90
4293;DHT22;2160;51.172;6.808;2023-11-18T14:36:10;11.20;99.90
4293;DHT22;2160;51.172;6.808;2023-11-18T14:38:37;11.20;99.90
4293;DHT22;2160;51.172;6.808;2023-11-18T14:41:04;11.00;99.90
4293;DHT22;2160;51.172;6.808;2023-11-18T14:43:33;11.00;99.90
4293;DHT22;2160;51.172;6.808;2023-11-18T14:46:03;11.00;99.90
4293;DHT22;2160;51.172;6.808;2023-11-18T14:48:30;11.10;99.90
4293;DHT22;2160;51.172;6.808;2023-11-18T14:50:58;11.10;99.90
4293;DHT22;2160;51.172;6.808;2023-11-18T14:53:25;11.20;99.90
4293;DHT22;2160;51.172;6.808;2023-11-18T14:55:53;11.20;99.90
4293;DHT22;2160;51.172;6.808;2023-11-18T14:58:20;11.20;99.90
4293;DHT22;2160;51.172;6.808;2023-11-18T15:00:47;11.10;99.90
4293;DHT22;2160;51.172;6.808;2023-11-18T15:03:15;11.10;99.90
4293;DHT22;2160;51.172;6.808;2023-11-18T15:05:43;11.00;99.90
4293;DHT22;2160;51.172;6.808;2023-11-18T15:08:10;11.00;99.90
4293;DHT22;2160;51.172;6.808;2023-11-18T15:10:39;11.00;99.90
4293;DHT22;2160;51.172;6.808;2023-11-18T15:13:08;11.00;99.90
4293;DHT22;2160;51.172;6.808;2023-11-18T15:15:41;10.90;99.90
4293;DHT22;2160;51.172;6.808;2023-11-18T15:18:08;10.70;99.90
4293;DHT22;2160;51.172;6.808;2023-11-18T15:20:41;10.60;99.90
4293;DHT22;2160;51.172;6.808;2023-11-18T15:23:08;10.60;99.90
4293;DHT22;2160;51.172;6.808;2023-11-18T15:25:35;10.60;99.90
4293;DHT22;2160;51.172;6.808;2023-11-18T15:28:03;10.70;99.90
4293;DHT22;2160;51.172;6.808;2023-11-18T15:30:35;10.60;99.90
4293;DHT22;2160;51.172;6.808;2023-11-18T15:33:03;10.70;99.90
4293;DHT22;2160;51.172;6.808;2023-11-18T15:35:30;10.60;99.90
4293;DHT22;2160;51.172;6.808;2023-11-18T15:37:58;10.80;99.90
4293;DHT22;2160;51.172;6.808;2023-11-18T15:40:25;10.50;99.90
4293;DHT22;2160;51.172;6.808;2023-11-18T15:42:53;10.50;99.90
4293;DHT22;2160;51.172;6.808;2023-11-18T15:45:23;10.50;99.90
4293;DHT22;2160;51.172;6.808;2023-11-18T15:47:50;10.50;99.90
4293;DHT22;2160;51.172;6.808;2023-11-18T15:50:17;10.60;99.90
4293;DHT22;2160;51.172;6.808;2023-11-18T15:52:45;10.60;99.90
4293;DHT22;2160;51.172;6.808;2023-11-18T15:55:15;10.80;99.90
4293;DHT22;2160;51.172;6.808;2023-11-18T15:57:44;10.70;99.90
4293;DHT22;2160;51.172;6.808;2023-11-18T16:00:13;10.50;99.90
4293;DHT22;2160;51.172;6.808;2023-11-18T16:02:42;10.70;99.90
4293;DHT22;2160;51.172;6.808;2023-11-18T16:05:11;10.70;99.90
4293;DHT22;2160;51.172;6.808;2023-11-18T16:07:41;10.80;99.90
4293;DHT22;2160;51.172;6.808;2023-11-18T16:10:08;10.80;99.90
4293;DHT22;2160;51.172;6.808;2023-11-18T16:12:37;10.50;99.90
4293;DHT22;2160;51.172;6.808;2023-11-18T16:15:05;10.40;99.90
4293;DHT22;2160;51.172;6.808;2023-11-18T16:17:33;10.50;99.90
4293;DHT22;2160;51.172;6.808;2023-11-18T16:20:00;10.60;99.90
4293;DHT22;2160;51.172;6.808;2023-11-18T16:22:32;10.70;99.90
4293;DHT22;2160;51.172;6.808;2023-11-18T16:24:59;10.50;99.90
4293;DHT22;2160;51.172;6.808;2023-11-18T16:27:26;10.60;99.90
4293;DHT22;2160;51.172;6.808;2023-11-18T16:29:55;10.70;99.90
4293;DHT22;2160;51.172;6.808;2023-11-18T16:32:22;10.70;99.90
4293;DHT22;2160;51.172;6.808;2023-11-18T16:34:49;10.80;99.90
4293;DHT22;2160;51.172;6.808;2023-11-18T16:37:16;10.80;99.90
4293;DHT22;2160;51.172;6.808;2023-11-18T16:39:42;10.60;99.90
4293;DHT22;2160;51.172;6.808;2023-11-18T16:42:11;10.70;99.90
4293;DHT22;2160;51.172;6.808;2023-11-18T16:44:38;10.70;99.90
4293;DHT22;2160;51.172;6.808;2023-11-18T16:47:06;10.90;99.90
4293;DHT22;2160;51.172;6.808;2023-11-18T16:49:33;11.00;99.90
4293;DHT22;2160;51.172;6.808;2023-11-18T16:52:00;10.80;99.90
4293;DHT22;2160;51.172;6.808;2023-11-18T16:54:29;10.80;99.90
4293;DHT22;2160;51.172;6.808;2023-11-18T16:56:56;10.90;99.90
4293;DHT22;2160;51.172;6.808;2023-11-18T16:59:23;10.90;99.90
4293;DHT22;2160;51.172;6.808;2023-11-18T17:01:50;10.70;99.90
4293;DHT22;2160;51.172;6.808;2023-11-18T17:04:18;10.60;99.90
4293;DHT22;2160;51.172;6.808;2023-11-18T17:06:45;10.80;99.90
4293;DHT22;2160;51.172;6.808;2023-11-18T17:09:12;11.00;99.90
4293;DHT22;2160;51.172;6.808;2023-11-18T17:11:39;11.00;99.90
4293;DHT22;2160;51.172;6.808;2023-11-18T17:14:06;10.80;99.90
4293;DHT22;2160;51.172;6.808;2023-11-18T17:16:33;10.80;99.90
4293;DHT22;2160;51.172;6.808;2023-11-18T17:19:00;10.80;99.90
4293;DHT22;2160;51.172;6.808;2023-11-18T17:21:28;10.70;99.90
4293;DHT22;2160;51.172;6.808;2023-11-18T17:23:55;10.80;99.90
4293;DHT22;2160;51.172;6.808;2023-11-18T17:26:22;10.80;99.90
4293;DHT22;2160;51.172;6.808;2023-11-18T17:28:50;10.70;99.90
4293;DHT22;2160;51.172;6.808;2023-11-18T17:31:17;10.80;99.90
4293;DHT22;2160;51.172;6.808;2023-11-18T17:33:44;10.80;99.90
4293;DHT22;2160;51.172;6.808;2023-11-18T17:36:12;10.90;99.90
4293;DHT22;2160;51.172;6.808;2023-11-18T17:38:41;10.70;99.90
4293;DHT22;2160;51.172;6.808;2023-11-18T17:41:09;10.80;99.90
4293;DHT22;2160;51.172;6.808;2023-11-18T17:43:36;10.90;99.90
4293;DHT22;2160;51.172;6.808;2023-11-18T17:46:04;10.90;99.90
4293;DHT22;2160;51.172;6.808;2023-11-18T17:48:34;10.90;99.90
4293;DHT22;2160;51.172;6.808;2023-11-18T17:51:01;10.80;99.90
4293;DHT22;2160;51.172;6.808;2023-11-18T17:53:28;10.90;99.90
4293;DHT22;2160;51.172;6.808;2023-11-18T17:55:56;11.00;99.90
4293;DHT22;2160;51.172;6.808;2023-11-18T17:58:23;10.90;99.90
4293;DHT22;2160;51.172;6.808;2023-11-18T18:00:50;10.70;99.90
4293;DHT22;2160;51.172;6.808;2023-11-18T18:03:17;10.90;99.90
4293;DHT22;2160;51.172;6.808;2023-11-18T18:05:44;11.10;99.90
4293;DHT22;2160;51.172;6.808;2023-11-18T18:08:11;10.90;99.90
4293;DHT22;2160;51.172;6.808;2023-11-18T18:10:40;10.90;99.90
4293;DHT22;2160;51.172;6.808;2023-11-18T18:13:08;10.90;99.90
4293;DHT22;2160;51.172;6.808;2023-11-18T18:15:36;11.00;99.90
4293;DHT22;2160;51.172;6.808;2023-11-18T18:18:04;11.10;99.90
4293;DHT22;2160;51.172;6.808;2023-11-18T18:20:31;10.80;99.90
4293;DHT22;2160;51.172;6.808;2023-11-18T18:22:58;10.90;99.90
4293;DHT22;2160;51.172;6.808;2023-11-18T18:25:25;10.70;99.90
4293;DHT22;2160;51.172;6.808;2023-11-18T18:27:52;10.80;99.90
4293;DHT22;2160;51.172;6.808;2023-11-18T18:30:20;10.90;99.90
4293;DHT22;2160;51.172;6.808;2023-11-18T18:32:47;10.90;99.90
4293;DHT22;2160;51.172;6.808;2023-11-18T18:35:15;10.80;99.90
4293;DHT22;2160;51.172;6.808;2023-11-18T18:37:43;11.00;99.90
4293;DHT22;2160;51.172;6.808;2023-11-18T18:40:11;11.10;99.90
4293;DHT22;2160;51.172;6.808;2023-11-18T18:42:40;11.10;99.90
4293;DHT22;2160;51.172;6.808;2023-11-18T18:45:09;11.20;99.90
4293;DHT22;2160;51.172;6.808;2023-11-18T18:47:38;11.30;99.90
4293;DHT22;2160;51.172;6.808;2023-11-18T18:50:06;11.20;99.90
4293;DHT22;2160;51.172;6.808;2023-11-18T18:52:34;11.20;99.90
4293;DHT22;2160;51.172;6.808;2023-11-18T18:55:01;11.20;99.90
4293;DHT22;2160;51.172;6.808;2023-11-18T18:57:28;11.20;99.90
4293;DHT22;2160;51.172;6.808;2023-11-18T18:59:55;11.40;99.90
4293;DHT22;2160;51.172;6.808;2023-11-18T19:02:22;11.40;99.90
4293;DHT22;2160;51.172;6.808;2023-11-18T19:04:51;11.40;99.90
4293;DHT22;2160;51.172;6.808;2023-11-18T19:07:18;11.20;99.90
4293;DHT22;2160;51.172;6.808;2023-11-18T19:09:46;11.20;99.90
4293;DHT22;2160;51.172;6.808;2023-11-18T19:12:14;11.20;99.90
4293;DHT22;2160;51.172;6.808;2023-11-18T19:14:42;11.30;99.90
4293;DHT22;2160;51.172;6.808;2023-11-18T19:17:09;11.40;99.90
4293;DHT22;2160;51.172;6.808;2023-11-18T19:19:36;11.30;99.90
4293;DHT22;2160;51.172;6.808;2023-11-18T19:22:04;11.30;99.90
4293;DHT22;2160;51.172;6.808;2023-11-18T19:24:32;11.40;99.90
4293;DHT22;2160;51.172;6.808;2023-11-18T19:26:59;11.50;99.90
4293;DHT22;2160;51.172;6.808;2023-11-18T19:29:26;11.50;99.90
4293;DHT22;2160;51.172;6.808;2023-11-18T19:31:53;11.80;99.90
4293;DHT22;2160;51.172;6.808;2023-11-18T19:34:20;11.50;99.90
4293;DHT22;2160;51.172;6.808;2023-11-18T19:36:48;11.40;99.90
4293;DHT22;2160;51.172;6.808;2023-11-18T19:39:16;11.60;99.90
4293;DHT22;2160;51.172;6.808;2023-11-18T19:41:46;11.70;99.90
4293;DHT22;2160;51.172;6.808;2023-11-18T19:44:12;11.60;99.90
4293;DHT22;2160;51.172;6.808;2023-11-18T19:46:40;11.60;99.90
4293;DHT22;2160;51.172;6.808;2023-11-18T19:49:08;11.60;99.90
4293;DHT22;2160;51.172;6.808;2023-11-18T19:51:36;11.80;99.90
4293;DHT22;2160;51.172;6.808;2023-11-18T19:54:03;11.90;99.90
4293;DHT22;2160;51.172;6.808;2023-11-18T19:56:31;11.80;99.90
4293;DHT22;2160;51.172;6.808;2023-11-18T19:58:59;11.80;99.90
4293;DHT22;2160;51.172;6.808;2023-11-18T20:01:26;11.80;99.90
4293;DHT22;2160;51.172;6.808;2023-11-18T20:03:54;11.90;99.90
4293;DHT22;2160;51.172;6.808;2023-11-18T20:06:21;11.90;99.90
4293;DHT22;2160;51.172;6.808;2023-11-18T20:08:48;11.80;99.90
4293;DHT22;2160;51.172;6.808;2023-11-18T20:11:15;11.90;99.90
4293;DHT22;2160;51.172;6.808;2023-11-18T20:13:43;11.90;99.90
4293;DHT22;2160;51.172;6.808;2023-11-18T20:16:10;11.90;99.90
4293;DHT22;2160;51.172;6.808;2023-11-18T20:18:37;12.00;99.90
4293;DHT22;2160;51.172;6.808;2023-11-18T20:21:05;12.00;99.90
4293;DHT22;2160;51.172;6.808;2023-11-18T20:23:34;12.00;99.90
4293;DHT22;2160;51.172;6.808;2023-11-18T20:26:01;12.00;99.90
4293;DHT22;2160;51.172;6.808;2023-11-18T20:28:30;12.00;99.90
4293;DHT22;2160;51.172;6.808;2023-11-18T20:31:01;12.00;99.90
4293;DHT22;2160;51.172;6.808;2023-11-18T20:33:28;12.00;99.90
4293;DHT22;2160;51.172;6.808;2023-11-18T20:35:55;12.00;99.90
4293;DHT22;2160;51.172;6.808;2023-11-18T20:38:24;12.10;99.90
4293;DHT22;2160;51.172;6.808;2023-11-18T20:40:52;12.20;99.90
4293;DHT22;2160;51.172;6.808;2023-11-18T20:43:19;12.30;99.90
4293;DHT22;2160;51.172;6.808;2023-11-18T20:45:47;12.20;99.90
4293;DHT22;2160;51.172;6.808;2023-11-18T20:48:15;12.20;99.90
4293;DHT22;2160;51.172;6.808;2023-11-18T20:50:42;12.10;99.90
4293;DHT22;2160;51.172;6.808;2023-11-18T20:53:16;12.10;99.90
4293;DHT22;2160;51.172;6.808;2023-11-18T20:55:43;12.30;99.90
4293;DHT22;2160;51.172;6.808;2023-11-18T20:58:10;12.30;99.90
4293;DHT22;2160;51.172;6.808;2023-11-18T21:00:37;12.30;99.90
4293;DHT22;2160;51.172;6.808;2023-11-18T21:03:04;12.30;99.90
4293;DHT22;2160;51.172;6.808;2023-11-18T21:05:33;12.20;99.90
4293;DHT22;2160;51.172;6.808;2023-11-18T21:08:00;12.30;99.90
4293;DHT22;2160;51.172;6.808;2023-11-18T21:10:27;12.40;99.90
4293;DHT22;2160;51.172;6.808;2023-11-18T21:12:55;12.20;99.90
4293;DHT22;2160;51.172;6.808;2023-11-18T21:15:22;12.10;99.90
4293;DHT22;2160;51.172;6.808;2023-11-18T21:17:51;12.10;99.90
4293;DHT22;2160;51.172;6.808;2023-11-18T21:20:18;12.30;99.90
4293;DHT22;2160;51.172;6.808;2023-11-18T21:22:48;12.40;99.90